sensor_id;sensor_type;location;lat;lon;timestamp;temperature;humidity
28632;DHT22;15818;45.534;5.292;2022-08-02T00:01:35;22.30;99.90
28632;DHT22;15818;45.534;5.292;2022-08-02T00:04:01;22.20;99.90
28632;DHT22;15818;45.534;5.292;2022-08-02T00:06:27;22.10;99.90
28632;DHT22;15818;45.534;5.292;2022-08-02T00:08:53;22.10;99.90
28632;DHT22;15818;45.534;5.292;2022-08-02T00:11:19;22.10;99.90
28632;DHT22;15818;45.534;5.292;2022-08-02T00:13:45;22.10;99.90
28632;DHT22;15818;45.534;5.292;2022-08-02T00:16:11;22.10;99.90
28632;DHT22;15818;45.534;5.292;2022-08-02T00:18:37;22.10;99.90
28632;DHT22;15818;45.534;5.292;2022-08-02T00:21:04;22.10;99.90
28632;DHT22;15818;45.534;5.292;2022-08-02T00:23:30;22.00;99.90
28632;DHT22;15818;45.534;5.292;2022-08-02T00:25:56;22.00;99.90
28632;DHT22;15818;45.534;5.292;2022-08-02T00:28:23;22.00;99.90
28632;DHT22;15818;45.534;5.292;2022-08-02T00:30:49;22.10;99.90
28632;DHT22;15818;45.534;5.292;2022-08-02T00:33:15;22.00;99.90
28632;DHT22;15818;45.534;5.292;2022-08-02T00:35:40;22.10;99.90
28632;DHT22;15818;45.534;5.292;2022-08-02T00:38:06;22.00;99.90
28632;DHT22;15818;45.534;5.292;2022-08-02T00:40:32;22.00;99.90
28632;DHT22;15818;45.534;5.292;2022-08-02T00:43:07;21.90;99.90
28632;DHT22;15818;45.534;5.292;2022-08-02T00:45:34;21.70;99.90
28632;DHT22;15818;45.534;5.292;2022-08-02T00:48:00;21.70;99.90
28632;DHT22;15818;45.534;5.292;2022-08-02T00:50:26;21.60;99.90
28632;DHT22;15818;45.534;5.292;2022-08-02T00:52:53;21.60;99.90
28632;DHT22;15818;45.534;5.292;2022-08-02T00:55:19;21.40;99.90
28632;DHT22;15818;45.534;5.292;2022-08-02T00:57:45;21.40;99.90
28632;DHT22;15818;45.534;5.292;2022-08-02T01:00:11;21.40;99.90
28632;DHT22;15818;45.534;5.292;2022-08-02T01:02:37;21.40;99.90
28632;DHT22;15818;45.534;5.292;2022-08-02T01:05:04;21.50;99.90
28632;DHT22;15818;45.534;5.292;2022-08-02T01:07:29;21.40;99.90
28632;DHT22;15818;45.534;5.292;2022-08-02T01:09:55;21.40;99.90
28632;DHT22;15818;45.534;5.292;2022-08-02T01:12:21;21.20;99.90
28632;DHT22;15818;45.534;5.292;2022-08-02T01:14:49;21.30;99.90
28632;DHT22;15818;45.534;5.292;2022-08-02T01:28:39;21.10;99.90
28632;DHT22;15818;45.534;5.292;2022-08-02T01:34:05;21.00;99.90
28632;DHT22;15818;45.534;5.292;2022-08-02T01:36:44;21.10;99.90
28632;DHT22;15818;45.534;5.292;2022-08-02T01:39:16;21.10;99.90
28632;DHT22;15818;45.534;5.292;2022-08-02T01:41:44;21.20;99.90
28632;DHT22;15818;45.534;5.292;2022-08-02T01:44:12;21.30;99.90
28632;DHT22;15818;45.534;5.292;2022-08-02T01:46:41;21.30;99.90
28632;DHT22;15818;45.534;5.292;2022-08-02T01:49:13;21.30;99.90
28632;DHT22;15818;45.534;5.292;2022-08-02T01:51:42;21.30;99.90
28632;DHT22;15818;45.534;5.292;2022-08-02T01:54:29;21.40;99.90
28632;DHT22;15818;45.534;5.292;2022-08-02T01:56:55;21.40;99.90
28632;DHT22;15818;45.534;5.292;2022-08-02T01:59:22;21.40;99.90
28632;DHT22;15818;45.534;5.292;2022-08-02T02:01:50;21.30;99.90
28632;DHT22;15818;45.534;5.292;2022-08-02T02:04:16;21.30;99.90
28632;DHT22;15818;45.534;5.292;2022-08-02T02:06:45;21.30;99.90
28632;DHT22;15818;45.534;5.292;2022-08-02T02:09:13;21.30;99.90
28632;DHT22;15818;45.534;5.292;2022-08-02T02:11:43;21.20;99.90
28632;DHT22;15818;45.534;5.292;2022-08-02T02:14:11;21.20;99.90
28632;DHT22;15818;45.534;5.292;2022-08-02T02:16:40;21.10;99.90
28632;DHT22;15818;45.534;5.292;2022-08-02T02:19:07;21.10;99.90
28632;DHT22;15818;45.534;5.292;2022-08-02T02:21:34;21.10;99.90
28632;DHT22;15818;45.534;5.292;2022-08-02T02:24:00;21.10;99.90
28632;DHT22;15818;45.534;5.292;2022-08-02T02:26:26;21.20;99.90
28632;DHT22;15818;45.534;5.292;2022-08-02T02:28:53;21.20;99.90
28632;DHT22;15818;45.534;5.292;2022-08-02T02:31:20;21.10;99.90
28632;DHT22;15818;45.534;5.292;2022-08-02T02:33:49;21.10;99.90
28632;DHT22;15818;45.534;5.292;2022-08-02T02:36:19;21.10;99.90
28632;DHT22;15818;45.534;5.292;2022-08-02T02:38:47;21.00;99.90
28632;DHT22;15818;45.534;5.292;2022-08-02T02:41:15;20.90;99.90
28632;DHT22;15818;45.534;5.292;2022-08-02T02:43:42;20.90;99.90
28632;DHT22;15818;45.534;5.292;2022-08-02T02:46:09;20.90;99.90
28632;DHT22;15818;45.534;5.292;2022-08-02T02:48:37;20.90;99.90
28632;DHT22;15818;45.534;5.292;2022-08-02T02:51:04;20.80;99.90
28632;DHT22;15818;45.534;5.292;2022-08-02T02:53:31;20.90;99.90
28632;DHT22;15818;45.534;5.292;2022-08-02T02:55:57;20.90;99.90
28632;DHT22;15818;45.534;5.292;2022-08-02T02:58:23;20.80;99.90
28632;DHT22;15818;45.534;5.292;2022-08-02T03:00:50;20.90;99.90
28632;DHT22;15818;45.534;5.292;2022-08-02T03:03:36;20.90;99.90
28632;DHT22;15818;45.534;5.292;2022-08-02T03:06:03;20.90;99.90
28632;DHT22;15818;45.534;5.292;2022-08-02T03:08:28;20.90;99.90
28632;DHT22;15818;45.534;5.292;2022-08-02T03:10:55;20.90;99.90
28632;DHT22;15818;45.534;5.292;2022-08-02T03:13:21;20.80;99.90
28632;DHT22;15818;45.534;5.292;2022-08-02T03:15:47;20.70;99.90
28632;DHT22;15818;45.534;5.292;2022-08-02T03:18:33;20.70;99.90
28632;DHT22;15818;45.534;5.292;2022-08-02T03:21:04;20.70;99.90
28632;DHT22;15818;45.534;5.292;2022-08-02T03:23:31;20.80;99.90
28632;DHT22;15818;45.534;5.292;2022-08-02T03:25:56;20.80;99.90
28632;DHT22;15818;45.534;5.292;2022-08-02T03:28:23;20.80;99.90
28632;DHT22;15818;45.534;5.292;2022-08-02T03:30:49;20.80;99.90
28632;DHT22;15818;45.534;5.292;2022-08-02T03:33:15;20.80;99.90
28632;DHT22;15818;45.534;5.292;2022-08-02T03:35:42;20.80;99.90
28632;DHT22;15818;45.534;5.292;2022-08-02T03:38:10;20.70;99.90
28632;DHT22;15818;45.534;5.292;2022-08-02T03:40:37;20.60;99.90
28632;DHT22;15818;45.534;5.292;2022-08-02T03:43:04;20.60;99.90
28632;DHT22;15818;45.534;5.292;2022-08-02T03:45:30;20.50;99.90
28632;DHT22;15818;45.534;5.292;2022-08-02T03:47:57;20.50;99.90
28632;DHT22;15818;45.534;5.292;2022-08-02T03:50:24;20.50;99.90
28632;DHT22;15818;45.534;5.292;2022-08-02T03:52:51;20.60;99.90
28632;DHT22;15818;45.534;5.292;2022-08-02T03:55:17;20.50;99.90
28632;DHT22;15818;45.534;5.292;2022-08-02T03:57:43;20.30;99.90
28632;DHT22;15818;45.534;5.292;2022-08-02T04:00:11;20.10;99.90
28632;DHT22;15818;45.534;5.292;2022-08-02T04:02:37;19.90;99.90
28632;DHT22;15818;45.534;5.292;2022-08-02T04:05:04;19.80;99.90
28632;DHT22;15818;45.534;5.292;2022-08-02T04:07:30;19.80;99.90
28632;DHT22;15818;45.534;5.292;2022-08-02T04:09:55;19.60;99.90
28632;DHT22;15818;45.534;5.292;2022-08-02T04:12:21;19.50;99.90
28632;DHT22;15818;45.534;5.292;2022-08-02T04:14:47;19.70;99.90
28632;DHT22;15818;45.534;5.292;2022-08-02T04:17:14;19.80;99.90
28632;DHT22;15818;45.534;5.292;2022-08-02T04:20:00;19.80;99.90
28632;DHT22;15818;45.534;5.292;2022-08-02T04:22:33;20.00;99.90
28632;DHT22;15818;45.534;5.292;2022-08-02T04:25:02;20.00;99.90
28632;DHT22;15818;45.534;5.292;2022-08-02T04:27:30;19.80;99.90
28632;DHT22;15818;45.534;5.292;2022-08-02T04:29:56;19.80;99.90
28632;DHT22;15818;45.534;5.292;2022-08-02T04:32:23;19.90;99.90
28632;DHT22;15818;45.534;5.292;2022-08-02T04:34:49;20.00;99.90
28632;DHT22;15818;45.534;5.292;2022-08-02T04:37:15;20.00;99.90
28632;DHT22;15818;45.534;5.292;2022-08-02T04:39:41;20.10;99.90
28632;DHT22;15818;45.534;5.292;2022-08-02T04:42:07;20.00;99.90
28632;DHT22;15818;45.534;5.292;2022-08-02T04:44:33;20.10;99.90
28632;DHT22;15818;45.534;5.292;2022-08-02T04:47:00;20.20;99.90
28632;DHT22;15818;45.534;5.292;2022-08-02T04:49:28;20.10;99.90
28632;DHT22;15818;45.534;5.292;2022-08-02T04:51:53;19.90;99.90
28632;DHT22;15818;45.534;5.292;2022-08-02T04:54:19;19.70;99.90
28632;DHT22;15818;45.534;5.292;2022-08-02T04:56:45;19.60;99.90
28632;DHT22;15818;45.534;5.292;2022-08-02T04:59:11;19.70;99.90
28632;DHT22;15818;45.534;5.292;2022-08-02T05:01:37;19.90;99.90
28632;DHT22;15818;45.534;5.292;2022-08-02T05:04:04;20.00;99.90
28632;DHT22;15818;45.534;5.292;2022-08-02T05:06:30;20.10;99.90
28632;DHT22;15818;45.534;5.292;2022-08-02T05:08:56;20.10;99.90
28632;DHT22;15818;45.534;5.292;2022-08-02T05:11:22;20.10;99.90
28632;DHT22;15818;45.534;5.292;2022-08-02T05:13:49;20.10;99.90
28632;DHT22;15818;45.534;5.292;2022-08-02T05:16:15;20.10;99.90
28632;DHT22;15818;45.534;5.292;2022-08-02T05:18:41;20.10;99.90
28632;DHT22;15818;45.534;5.292;2022-08-02T05:21:08;20.10;99.90
28632;DHT22;15818;45.534;5.292;2022-08-02T05:23:34;20.10;99.90
28632;DHT22;15818;45.534;5.292;2022-08-02T05:25:59;20.10;99.90
28632;DHT22;15818;45.534;5.292;2022-08-02T05:28:25;20.10;99.90
28632;DHT22;15818;45.534;5.292;2022-08-02T05:30:51;20.00;99.90
28632;DHT22;15818;45.534;5.292;2022-08-02T05:33:16;20.00;99.90
28632;DHT22;15818;45.534;5.292;2022-08-02T05:35:42;20.10;99.90
28632;DHT22;15818;45.534;5.292;2022-08-02T05:38:08;20.00;99.90
28632;DHT22;15818;45.534;5.292;2022-08-02T05:40:34;20.20;99.90
28632;DHT22;15818;45.534;5.292;2022-08-02T05:43:00;20.30;99.90
28632;DHT22;15818;45.534;5.292;2022-08-02T05:45:26;20.10;99.90
28632;DHT22;15818;45.534;5.292;2022-08-02T05:47:52;20.10;99.90
28632;DHT22;15818;45.534;5.292;2022-08-02T05:50:18;20.10;99.90
28632;DHT22;15818;45.534;5.292;2022-08-02T05:53:03;20.20;99.90
28632;DHT22;15818;45.534;5.292;2022-08-02T05:55:39;20.60;99.90
28632;DHT22;15818;45.534;5.292;2022-08-02T05:58:39;20.80;99.90
28632;DHT22;15818;45.534;5.292;2022-08-02T06:01:10;20.80;99.90
28632;DHT22;15818;45.534;5.292;2022-08-02T06:03:44;20.90;99.90
28632;DHT22;15818;45.534;5.292;2022-08-02T06:06:14;20.90;99.90
28632;DHT22;15818;45.534;5.292;2022-08-02T06:09:14;21.10;99.90
28632;DHT22;15818;45.534;5.292;2022-08-02T06:11:45;21.10;99.90
28632;DHT22;15818;45.534;5.292;2022-08-02T06:14:12;21.30;99.90
28632;DHT22;15818;45.534;5.292;2022-08-02T06:16:38;21.40;99.90
28632;DHT22;15818;45.534;5.292;2022-08-02T06:19:04;21.70;99.90
28632;DHT22;15818;45.534;5.292;2022-08-02T06:21:31;21.70;99.90
28632;DHT22;15818;45.534;5.292;2022-08-02T06:23:57;21.70;99.90
28632;DHT22;15818;45.534;5.292;2022-08-02T06:26:25;21.80;99.90
28632;DHT22;15818;45.534;5.292;2022-08-02T06:28:55;22.00;99.90
28632;DHT22;15818;45.534;5.292;2022-08-02T06:31:22;22.20;99.90
28632;DHT22;15818;45.534;5.292;2022-08-02T06:33:48;22.40;99.90
28632;DHT22;15818;45.534;5.292;2022-08-02T06:36:50;22.60;99.90
28632;DHT22;15818;45.534;5.292;2022-08-02T06:39:31;22.60;99.90
28632;DHT22;15818;45.534;5.292;2022-08-02T06:42:02;22.60;99.90
28632;DHT22;15818;45.534;5.292;2022-08-02T06:44:33;22.60;99.90
28632;DHT22;15818;45.534;5.292;2022-08-02T06:46:59;22.60;99.90
28632;DHT22;15818;45.534;5.292;2022-08-02T06:49:25;22.60;99.90
28632;DHT22;15818;45.534;5.292;2022-08-02T06:51:50;22.70;99.90
28632;DHT22;15818;45.534;5.292;2022-08-02T06:54:16;22.80;99.90
28632;DHT22;15818;45.534;5.292;2022-08-02T06:56:46;23.00;99.90
28632;DHT22;15818;45.534;5.292;2022-08-02T06:59:12;23.00;99.90
28632;DHT22;15818;45.534;5.292;2022-08-02T07:01:37;23.10;99.90
28632;DHT22;15818;45.534;5.292;2022-08-02T07:04:03;23.00;99.90
28632;DHT22;15818;45.534;5.292;2022-08-02T07:06:30;23.10;99.90
28632;DHT22;15818;45.534;5.292;2022-08-02T07:08:55;23.00;99.90
28632;DHT22;15818;45.534;5.292;2022-08-02T07:11:21;23.10;99.90
28632;DHT22;15818;45.534;5.292;2022-08-02T07:13:48;23.10;99.90
28632;DHT22;15818;45.534;5.292;2022-08-02T07:16:14;23.10;99.90
28632;DHT22;15818;45.534;5.292;2022-08-02T07:18:40;23.20;99.90
28632;DHT22;15818;45.534;5.292;2022-08-02T07:21:05;23.20;99.90
28632;DHT22;15818;45.534;5.292;2022-08-02T07:23:32;23.30;99.90
28632;DHT22;15818;45.534;5.292;2022-08-02T07:25:58;23.30;99.90
28632;DHT22;15818;45.534;5.292;2022-08-02T07:28:24;23.30;99.90
28632;DHT22;15818;45.534;5.292;2022-08-02T07:30:50;23.30;99.90
28632;DHT22;15818;45.534;5.292;2022-08-02T07:33:16;23.50;99.90
28632;DHT22;15818;45.534;5.292;2022-08-02T07:35:42;23.60;99.90
28632;DHT22;15818;45.534;5.292;2022-08-02T07:38:08;23.60;99.90
28632;DHT22;15818;45.534;5.292;2022-08-02T07:40:34;23.70;99.90
28632;DHT22;15818;45.534;5.292;2022-08-02T07:43:00;23.70;99.90
28632;DHT22;15818;45.534;5.292;2022-08-02T07:45:26;23.80;99.90
28632;DHT22;15818;45.534;5.292;2022-08-02T07:47:52;23.90;99.90
28632;DHT22;15818;45.534;5.292;2022-08-02T07:50:19;23.80;99.90
28632;DHT22;15818;45.534;5.292;2022-08-02T07:52:45;23.90;99.90
28632;DHT22;15818;45.534;5.292;2022-08-02T07:55:13;24.10;99.90
28632;DHT22;15818;45.534;5.292;2022-08-02T07:57:39;24.20;99.90
28632;DHT22;15818;45.534;5.292;2022-08-02T08:00:06;24.20;99.90
28632;DHT22;15818;45.534;5.292;2022-08-02T08:02:34;24.20;99.90
28632;DHT22;15818;45.534;5.292;2022-08-02T08:05:04;24.20;99.90
28632;DHT22;15818;45.534;5.292;2022-08-02T08:07:33;24.20;99.90
28632;DHT22;15818;45.534;5.292;2022-08-02T08:10:02;24.20;99.90
28632;DHT22;15818;45.534;5.292;2022-08-02T08:12:30;24.30;99.90
28632;DHT22;15818;45.534;5.292;2022-08-02T08:14:57;24.30;99.90
28632;DHT22;15818;45.534;5.292;2022-08-02T08:17:23;24.30;99.90
28632;DHT22;15818;45.534;5.292;2022-08-02T08:19:49;24.40;99.90
28632;DHT22;15818;45.534;5.292;2022-08-02T08:22:15;24.60;99.90
28632;DHT22;15818;45.534;5.292;2022-08-02T08:24:41;24.60;99.90
28632;DHT22;15818;45.534;5.292;2022-08-02T08:27:07;24.70;99.90
28632;DHT22;15818;45.534;5.292;2022-08-02T08:29:39;24.80;99.90
28632;DHT22;15818;45.534;5.292;2022-08-02T08:32:05;25.10;99.90
28632;DHT22;15818;45.534;5.292;2022-08-02T08:34:31;25.10;99.90
28632;DHT22;15818;45.534;5.292;2022-08-02T08:36:57;25.10;99.90
28632;DHT22;15818;45.534;5.292;2022-08-02T08:39:22;25.10;99.90
28632;DHT22;15818;45.534;5.292;2022-08-02T08:41:48;25.20;99.90
28632;DHT22;15818;45.534;5.292;2022-08-02T08:44:14;25.30;99.90
28632;DHT22;15818;45.534;5.292;2022-08-02T08:46:41;25.40;99.90
28632;DHT22;15818;45.534;5.292;2022-08-02T08:49:15;25.50;99.90
28632;DHT22;15818;45.534;5.292;2022-08-02T08:51:43;25.40;99.90
28632;DHT22;15818;45.534;5.292;2022-08-02T08:54:13;25.70;99.90
28632;DHT22;15818;45.534;5.292;2022-08-02T08:56:40;25.80;99.90
28632;DHT22;15818;45.534;5.292;2022-08-02T08:59:06;26.00;99.90
28632;DHT22;15818;45.534;5.292;2022-08-02T09:01:33;26.10;99.90
28632;DHT22;15818;45.534;5.292;2022-08-02T09:03:59;26.10;99.90
28632;DHT22;15818;45.534;5.292;2022-08-02T09:06:25;26.00;99.90
28632;DHT22;15818;45.534;5.292;2022-08-02T09:08:50;25.80;99.90
28632;DHT22;15818;45.534;5.292;2022-08-02T09:11:21;25.80;99.90
28632;DHT22;15818;45.534;5.292;2022-08-02T09:13:58;26.10;99.90
28632;DHT22;15818;45.534;5.292;2022-08-02T09:19:21;26.60;99.90
28632;DHT22;15818;45.534;5.292;2022-08-02T09:21:50;26.90;99.90
28632;DHT22;15818;45.534;5.292;2022-08-02T09:24:21;26.80;99.90
28632;DHT22;15818;45.534;5.292;2022-08-02T09:26:48;26.90;99.90
28632;DHT22;15818;45.534;5.292;2022-08-02T09:29:15;27.10;99.90
28632;DHT22;15818;45.534;5.292;2022-08-02T09:31:42;27.00;99.90
28632;DHT22;15818;45.534;5.292;2022-08-02T09:34:08;27.10;99.90
28632;DHT22;15818;45.534;5.292;2022-08-02T09:36:45;27.60;99.90
28632;DHT22;15818;45.534;5.292;2022-08-02T09:39:13;27.70;99.90
28632;DHT22;15818;45.534;5.292;2022-08-02T09:41:41;27.80;99.90
28632;DHT22;15818;45.534;5.292;2022-08-02T09:44:10;28.10;99.90
28632;DHT22;15818;45.534;5.292;2022-08-02T09:46:43;28.50;99.90
28632;DHT22;15818;45.534;5.292;2022-08-02T09:49:18;28.60;99.90
28632;DHT22;15818;45.534;5.292;2022-08-02T09:54:16;28.60;99.90
28632;DHT22;15818;45.534;5.292;2022-08-02T09:56:58;28.80;99.90
28632;DHT22;15818;45.534;5.292;2022-08-02T09:59:25;28.50;99.90
28632;DHT22;15818;45.534;5.292;2022-08-02T10:01:53;28.50;99.90
28632;DHT22;15818;45.534;5.292;2022-08-02T10:04:21;28.70;99.90
28632;DHT22;15818;45.534;5.292;2022-08-02T10:06:48;28.90;99.90
28632;DHT22;15818;45.534;5.292;2022-08-02T10:09:15;29.00;99.90
28632;DHT22;15818;45.534;5.292;2022-08-02T10:11:41;28.90;99.90
28632;DHT22;15818;45.534;5.292;2022-08-02T10:14:09;29.20;99.90
28632;DHT22;15818;45.534;5.292;2022-08-02T10:16:37;29.30;99.90
28632;DHT22;15818;45.534;5.292;2022-08-02T10:19:03;29.40;99.90
28632;DHT22;15818;45.534;5.292;2022-08-02T10:24:12;29.90;99.90
28632;DHT22;15818;45.534;5.292;2022-08-02T10:26:41;30.00;99.90
28632;DHT22;15818;45.534;5.292;2022-08-02T10:29:10;29.90;99.90
28632;DHT22;15818;45.534;5.292;2022-08-02T10:31:59;30.20;99.90
28632;DHT22;15818;45.534;5.292;2022-08-02T10:34:29;30.20;99.90
28632;DHT22;15818;45.534;5.292;2022-08-02T10:36:56;30.50;99.90
28632;DHT22;15818;45.534;5.292;2022-08-02T10:39:25;30.70;99.90
28632;DHT22;15818;45.534;5.292;2022-08-02T10:41:51;31.10;99.90
28632;DHT22;15818;45.534;5.292;2022-08-02T10:46:47;31.40;99.90
28632;DHT22;15818;45.534;5.292;2022-08-02T10:49:15;30.80;99.90
28632;DHT22;15818;45.534;5.292;2022-08-02T10:54:24;32.40;99.90
28632;DHT22;15818;45.534;5.292;2022-08-02T10:56:53;32.10;99.90
28632;DHT22;15818;45.534;5.292;2022-08-02T11:01:55;32.40;99.90
28632;DHT22;15818;45.534;5.292;2022-08-02T11:07:41;33.70;99.90
28632;DHT22;15818;45.534;5.292;2022-08-02T11:18:11;33.10;99.20
28632;DHT22;15818;45.534;5.292;2022-08-02T11:20:37;33.60;98.90
28632;DHT22;15818;45.534;5.292;2022-08-02T11:23:38;34.10;97.90
28632;DHT22;15818;45.534;5.292;2022-08-02T11:29:01;34.60;97.80
28632;DHT22;15818;45.534;5.292;2022-08-02T11:31:28;34.60;97.60
28632;DHT22;15818;45.534;5.292;2022-08-02T11:33:54;34.20;97.50
28632;DHT22;15818;45.534;5.292;2022-08-02T11:36:20;34.40;97.40
28632;DHT22;15818;45.534;5.292;2022-08-02T11:38:46;34.40;97.40
28632;DHT22;15818;45.534;5.292;2022-08-02T11:41:22;34.20;96.60
28632;DHT22;15818;45.534;5.292;2022-08-02T11:43:54;34.20;97.10
28632;DHT22;15818;45.534;5.292;2022-08-02T11:46:20;34.40;97.30
28632;DHT22;15818;45.534;5.292;2022-08-02T11:48:46;34.50;95.90
28632;DHT22;15818;45.534;5.292;2022-08-02T11:51:14;34.60;95.30
28632;DHT22;15818;45.534;5.292;2022-08-02T11:53:45;34.10;96.30
28632;DHT22;15818;45.534;5.292;2022-08-02T11:56:12;33.90;95.50
28632;DHT22;15818;45.534;5.292;2022-08-02T11:58:38;34.10;96.50
28632;DHT22;15818;45.534;5.292;2022-08-02T12:01:04;34.70;96.10
28632;DHT22;15818;45.534;5.292;2022-08-02T12:03:38;35.10;96.10
28632;DHT22;15818;45.534;5.292;2022-08-02T12:06:04;35.20;96.40
28632;DHT22;15818;45.534;5.292;2022-08-02T12:08:36;35.50;94.90
28632;DHT22;15818;45.534;5.292;2022-08-02T12:11:02;35.10;95.30
28632;DHT22;15818;45.534;5.292;2022-08-02T12:13:41;35.10;94.90
28632;DHT22;15818;45.534;5.292;2022-08-02T12:16:11;35.00;95.10
28632;DHT22;15818;45.534;5.292;2022-08-02T12:18:57;35.10;94.90
28632;DHT22;15818;45.534;5.292;2022-08-02T12:21:42;34.90;94.90
28632;DHT22;15818;45.534;5.292;2022-08-02T12:24:07;34.70;94.50
28632;DHT22;15818;45.534;5.292;2022-08-02T12:26:46;34.80;95.30
28632;DHT22;15818;45.534;5.292;2022-08-02T12:29:13;35.30;93.70
28632;DHT22;15818;45.534;5.292;2022-08-02T12:31:43;35.60;94.20
28632;DHT22;15818;45.534;5.292;2022-08-02T12:34:15;35.60;93.90
28632;DHT22;15818;45.534;5.292;2022-08-02T12:42:02;35.40;94.50
28632;DHT22;15818;45.534;5.292;2022-08-02T12:44:28;35.60;94.20
28632;DHT22;15818;45.534;5.292;2022-08-02T12:47:01;35.10;94.20
28632;DHT22;15818;45.534;5.292;2022-08-02T12:49:28;35.00;94.00
28632;DHT22;15818;45.534;5.292;2022-08-02T12:51:54;34.70;93.60
28632;DHT22;15818;45.534;5.292;2022-08-02T12:54:26;34.90;93.60
28632;DHT22;15818;45.534;5.292;2022-08-02T12:56:52;35.20;92.60
28632;DHT22;15818;45.534;5.292;2022-08-02T12:59:39;34.70;93.00
28632;DHT22;15818;45.534;5.292;2022-08-02T13:02:06;35.20;92.60
28632;DHT22;15818;45.534;5.292;2022-08-02T13:04:33;35.50;93.40
28632;DHT22;15818;45.534;5.292;2022-08-02T13:06:59;35.60;93.10
28632;DHT22;15818;45.534;5.292;2022-08-02T13:09:25;35.60;92.80
28632;DHT22;15818;45.534;5.292;2022-08-02T13:11:51;35.60;91.80
28632;DHT22;15818;45.534;5.292;2022-08-02T13:14:17;35.80;93.00
28632;DHT22;15818;45.534;5.292;2022-08-02T13:16:44;35.80;92.10
28632;DHT22;15818;45.534;5.292;2022-08-02T13:19:10;35.10;92.00
28632;DHT22;15818;45.534;5.292;2022-08-02T13:21:37;34.80;92.70
28632;DHT22;15818;45.534;5.292;2022-08-02T13:24:03;34.70;93.10
28632;DHT22;15818;45.534;5.292;2022-08-02T13:26:29;34.90;92.40
28632;DHT22;15818;45.534;5.292;2022-08-02T13:28:54;34.90;93.00
28632;DHT22;15818;45.534;5.292;2022-08-02T13:31:20;34.70;93.00
28632;DHT22;15818;45.534;5.292;2022-08-02T13:33:48;34.40;93.60
28632;DHT22;15818;45.534;5.292;2022-08-02T13:36:13;34.70;93.60
28632;DHT22;15818;45.534;5.292;2022-08-02T13:38:39;34.60;93.00
28632;DHT22;15818;45.534;5.292;2022-08-02T13:41:05;34.40;93.90
28632;DHT22;15818;45.534;5.292;2022-08-02T13:43:35;34.60;93.30
28632;DHT22;15818;45.534;5.292;2022-08-02T13:46:02;34.70;93.00
28632;DHT22;15818;45.534;5.292;2022-08-02T13:48:29;34.70;92.70
28632;DHT22;15818;45.534;5.292;2022-08-02T13:50:56;34.70;92.60
28632;DHT22;15818;45.534;5.292;2022-08-02T13:53:22;34.40;92.30
28632;DHT22;15818;45.534;5.292;2022-08-02T13:55:48;34.10;92.50
28632;DHT22;15818;45.534;5.292;2022-08-02T13:58:15;33.60;93.30
28632;DHT22;15818;45.534;5.292;2022-08-02T14:00:42;33.60;92.90
28632;DHT22;15818;45.534;5.292;2022-08-02T14:03:09;33.80;92.50
28632;DHT22;15818;45.534;5.292;2022-08-02T14:05:41;33.80;93.00
28632;DHT22;15818;45.534;5.292;2022-08-02T14:08:07;33.80;92.30
28632;DHT22;15818;45.534;5.292;2022-08-02T14:10:33;33.80;92.20
28632;DHT22;15818;45.534;5.292;2022-08-02T14:12:59;33.80;92.80
28632;DHT22;15818;45.534;5.292;2022-08-02T14:15:26;33.80;92.20
28632;DHT22;15818;45.534;5.292;2022-08-02T14:17:52;33.50;92.00
28632;DHT22;15818;45.534;5.292;2022-08-02T14:20:18;33.40;92.80
28632;DHT22;15818;45.534;5.292;2022-08-02T14:22:43;33.70;92.80
28632;DHT22;15818;45.534;5.292;2022-08-02T14:25:09;34.10;93.10
28632;DHT22;15818;45.534;5.292;2022-08-02T14:27:35;34.20;93.00
28632;DHT22;15818;45.534;5.292;2022-08-02T14:30:01;34.20;92.50
28632;DHT22;15818;45.534;5.292;2022-08-02T14:32:27;34.00;92.60
28632;DHT22;15818;45.534;5.292;2022-08-02T14:34:53;33.50;92.00
28632;DHT22;15818;45.534;5.292;2022-08-02T14:37:18;33.30;92.60
28632;DHT22;15818;45.534;5.292;2022-08-02T14:39:44;33.50;93.30
28632;DHT22;15818;45.534;5.292;2022-08-02T14:42:10;33.10;92.90
28632;DHT22;15818;45.534;5.292;2022-08-02T14:44:36;33.00;92.80
28632;DHT22;15818;45.534;5.292;2022-08-02T14:47:01;33.00;93.30
28632;DHT22;15818;45.534;5.292;2022-08-02T14:49:27;32.80;92.20
28632;DHT22;15818;45.534;5.292;2022-08-02T14:51:53;32.70;92.90
28632;DHT22;15818;45.534;5.292;2022-08-02T14:54:19;32.40;92.80
28632;DHT22;15818;45.534;5.292;2022-08-02T14:56:46;32.30;92.60
28632;DHT22;15818;45.534;5.292;2022-08-02T14:59:11;32.50;92.80
28632;DHT22;15818;45.534;5.292;2022-08-02T15:01:37;32.40;93.00
28632;DHT22;15818;45.534;5.292;2022-08-02T15:04:03;32.40;93.30
28632;DHT22;15818;45.534;5.292;2022-08-02T15:06:28;32.20;93.00
28632;DHT22;15818;45.534;5.292;2022-08-02T15:08:58;32.10;92.50
28632;DHT22;15818;45.534;5.292;2022-08-02T15:11:24;31.90;92.70
28632;DHT22;15818;45.534;5.292;2022-08-02T15:13:50;32.00;93.20
28632;DHT22;15818;45.534;5.292;2022-08-02T15:16:15;32.00;93.30
28632;DHT22;15818;45.534;5.292;2022-08-02T15:18:42;32.00;93.20
28632;DHT22;15818;45.534;5.292;2022-08-02T15:21:08;32.00;92.80
28632;DHT22;15818;45.534;5.292;2022-08-02T15:23:35;31.90;92.30
28632;DHT22;15818;45.534;5.292;2022-08-02T15:26:01;31.70;93.00
28632;DHT22;15818;45.534;5.292;2022-08-02T15:28:27;31.80;92.90
28632;DHT22;15818;45.534;5.292;2022-08-02T15:30:54;31.80;93.10
28632;DHT22;15818;45.534;5.292;2022-08-02T15:33:20;31.70;93.10
28632;DHT22;15818;45.534;5.292;2022-08-02T15:35:46;31.70;93.10
28632;DHT22;15818;45.534;5.292;2022-08-02T15:38:12;31.60;93.20
28632;DHT22;15818;45.534;5.292;2022-08-02T15:40:37;31.60;93.30
28632;DHT22;15818;45.534;5.292;2022-08-02T15:43:03;31.40;92.80
28632;DHT22;15818;45.534;5.292;2022-08-02T15:45:29;31.20;93.30
28632;DHT22;15818;45.534;5.292;2022-08-02T15:47:54;31.40;93.10
28632;DHT22;15818;45.534;5.292;2022-08-02T15:50:20;31.50;93.10
28632;DHT22;15818;45.534;5.292;2022-08-02T15:52:46;31.40;93.60
28632;DHT22;15818;45.534;5.292;2022-08-02T15:55:12;31.20;93.20
28632;DHT22;15818;45.534;5.292;2022-08-02T15:57:38;31.20;93.00
28632;DHT22;15818;45.534;5.292;2022-08-02T16:00:04;31.10;93.10
28632;DHT22;15818;45.534;5.292;2022-08-02T16:02:31;30.90;94.00
28632;DHT22;15818;45.534;5.292;2022-08-02T16:04:57;30.80;93.60
28632;DHT22;15818;45.534;5.292;2022-08-02T16:07:22;30.70;94.40
28632;DHT22;15818;45.534;5.292;2022-08-02T16:09:48;30.50;93.80
28632;DHT22;15818;45.534;5.292;2022-08-02T16:12:14;30.40;93.50
28632;DHT22;15818;45.534;5.292;2022-08-02T16:14:39;30.40;94.00
28632;DHT22;15818;45.534;5.292;2022-08-02T16:17:05;30.40;93.70
28632;DHT22;15818;45.534;5.292;2022-08-02T16:19:31;30.40;93.90
28632;DHT22;15818;45.534;5.292;2022-08-02T16:21:59;30.30;93.70
28632;DHT22;15818;45.534;5.292;2022-08-02T16:24:25;30.30;94.20